createdAt,value
2022-09-30T00:01:54.721Z,100470.28
2022-09-30T00:04:25.763Z,100472.91
2022-09-30T00:06:54.400Z,100486.81
2022-09-30T00:09:21.997Z,100480.47
2022-09-30T00:11:49.422Z,100479.69
2022-09-30T00:14:20.559Z,100484.94
2022-09-30T00:16:48.030Z,100497.66
2022-09-30T00:19:18.084Z,100491.13
2022-09-30T00:21:45.344Z,100488.19
2022-09-30T00:24:15.058Z,100496.41
2022-09-30T00:26:42.281Z,100500.47
2022-09-30T00:29:10.959Z,100500.47
2022-09-30T00:31:38.335Z,100501.31
2022-09-30T00:34:11.744Z,100499.69
2022-09-30T00:36:38.780Z,100497.22
2022-09-30T00:39:08.353Z,100485.13
2022-09-30T00:41:36.115Z,100488.66
2022-09-30T00:44:23.294Z,100496.59
2022-09-30T00:46:50.686Z,100492.28
2022-09-30T00:49:23.882Z,100484.28
2022-09-30T00:51:57.814Z,100484.84
2022-09-30T00:54:31.118Z,100494.72
2022-09-30T00:57:04.330Z,100497.19
2022-09-30T00:59:38.336Z,100495.09
2022-09-30T01:02:06.684Z,100498.16
2022-09-30T01:04:35.335Z,100503.66
2022-09-30T01:07:08.905Z,100503.69
2022-09-30T01:09:39.799Z,100494.72
2022-09-30T01:12:15.591Z,100501.34
2022-09-30T01:14:44.972Z,100492.66
2022-09-30T01:17:31.721Z,100490.59
2022-09-30T01:20:52.897Z,100498.25
2022-09-30T01:23:55.059Z,100495.94
2022-09-30T01:27:24.734Z,100509.91
2022-09-30T01:30:07.923Z,100500.47
2022-09-30T01:32:53.586Z,100500.81
2022-09-30T01:35:42.822Z,100495.47
2022-09-30T01:38:29.494Z,100501.13
2022-09-30T01:41:14.631Z,100504.63
2022-09-30T01:44:11.375Z,100504.31
2022-09-30T01:46:48.211Z,100507.22
2022-09-30T01:49:35.012Z,100502.91
2022-09-30T01:52:16.661Z,100505.78
2022-09-30T01:55:14.029Z,100511.53
2022-09-30T01:58:01.436Z,100509.44
2022-09-30T02:00:52.306Z,100512.38
2022-09-30T02:03:37.843Z,100509.69
2022-09-30T02:06:21.800Z,100512.72
2022-09-30T02:09:03.329Z,100516.13
2022-09-30T02:11:41.118Z,100511.34
2022-09-30T02:14:15.989Z,100518.00
2022-09-30T02:16:55.265Z,100521.38
2022-09-30T02:19:33.920Z,100523.22
2022-09-30T02:22:20.252Z,100530.13
2022-09-30T02:24:59.902Z,100521.59
2022-09-30T02:27:35.098Z,100522.91
2022-09-30T02:30:04.334Z,100525.00
2022-09-30T02:33:09.578Z,100527.00
2022-09-30T02:35:43.689Z,100525.25
2022-09-30T02:38:24.973Z,100529.25
2022-09-30T02:41:26.535Z,100534.81
2022-09-30T02:43:55.742Z,100532.72
2022-09-30T02:47:11.625Z,100532.38
2022-09-30T02:50:02.324Z,100537.00
2022-09-30T02:53:34.432Z,100542.34
2022-09-30T02:56:19.826Z,100546.91
2022-09-30T02:58:49.441Z,100552.19
2022-09-30T03:01:17.740Z,100563.25
2022-09-30T03:04:13.094Z,100556.16
2022-09-30T03:06:40.288Z,100556.06
2022-09-30T03:09:09.207Z,100548.47
2022-09-30T03:11:40.339Z,100547.06
2022-09-30T03:15:01.487Z,100548.91
2022-09-30T03:18:04.350Z,100545.22
2022-09-30T03:21:27.214Z,100552.97
2022-09-30T03:24:37.163Z,100560.19
2022-09-30T03:28:05.981Z,100556.06
2022-09-30T03:30:41.577Z,100550.13
2022-09-30T03:33:24.389Z,100552.19
2022-09-30T03:36:15.601Z,100559.25
2022-09-30T03:39:01.726Z,100566.66
2022-09-30T03:41:43.886Z,100568.09
2022-09-30T03:44:40.670Z,100555.19
2022-09-30T03:47:12.900Z,100556.03
2022-09-30T03:49:47.981Z,100555.66
2022-09-30T03:52:15.897Z,100562.00
2022-09-30T03:55:00.636Z,100571.00
2022-09-30T03:57:29.492Z,100564.22
2022-09-30T04:00:02.154Z,100564.69
2022-09-30T04:02:29.473Z,100572.44
2022-09-30T04:04:56.679Z,100581.88
2022-09-30T04:07:25.913Z,100571.66
2022-09-30T04:09:53.022Z,100577.50
2022-09-30T04:12:20.118Z,100577.25
2022-09-30T04:14:50.343Z,100576.72
2022-09-30T04:17:19.867Z,100577.88
2022-09-30T04:19:47.081Z,100583.00
2022-09-30T04:22:14.138Z,100579.38
2022-09-30T04:24:41.378Z,100582.88
2022-09-30T04:27:08.362Z,100585.47
2022-09-30T04:29:35.613Z,100573.28
2022-09-30T04:32:02.769Z,100582.06
2022-09-30T04:34:29.778Z,100585.25
2022-09-30T04:36:56.776Z,100591.47
2022-09-30T04:39:24.048Z,100584.81
2022-09-30T04:41:53.955Z,100589.25
2022-09-30T04:44:22.712Z,100590.09
2022-09-30T04:46:50.708Z,100595.81
2022-09-30T04:49:18.822Z,100610.25
2022-09-30T04:51:46.304Z,100615.66
2022-09-30T04:54:19.451Z,100616.31
2022-09-30T04:56:46.460Z,100617.09
2022-09-30T04:59:21.142Z,100620.47
2022-09-30T05:01:48.292Z,100626.66
2022-09-30T05:04:16.702Z,100625.75
2022-09-30T05:06:44.106Z,100630.00
2022-09-30T05:09:11.249Z,100627.19
2022-09-30T05:11:43.010Z,100627.41
2022-09-30T05:14:14.907Z,100632.69
2022-09-30T05:16:42.007Z,100642.25
2022-09-30T05:19:11.827Z,100655.44
2022-09-30T05:21:38.820Z,100648.53
2022-09-30T05:24:05.827Z,100653.03
2022-09-30T05:26:34.056Z,100650.16
2022-09-30T05:29:01.095Z,100650.53
2022-09-30T05:31:30.515Z,100651.78
2022-09-30T05:33:59.844Z,100654.81
2022-09-30T05:36:30.424Z,100658.13
2022-09-30T05:38:57.539Z,100664.13
2022-09-30T05:41:24.785Z,100667.47
2022-09-30T05:43:51.880Z,100665.72
2022-09-30T05:46:20.332Z,100661.00
2022-09-30T05:48:47.719Z,100658.78
